Time;durP1;ratioP1;P1;durP2;ratioP2;P2;SDS_P1;SDS_P2;PMS_P1;PMS_P2;Temp;Humidity;BMP_temperature;BMP_pressure;BME280_temperature;BME280_humidity;BME280_pressure;Samples;Min_cycle;Max_cycle;Signal;HPM_P1;HPM_P2
2024/04/20 00:01:08;;;;;;;3.53;1.07;;;;;;;8.00;84.56;98194.59;5493853;26;41463;-76
2024/04/20 00:03:38;;;;;;;1.17;0.83;;;;;;;8.01;84.22;98201.59;5494083;26;42799;-76
2024/04/20 00:06:08;;;;;;;2.53;0.70;;;;;;;8.01;84.54;98201.59;5491593;26;43086;-76
2024/04/20 00:08:40;;;;;;;0.80;0.80;;;;;;;8.03;84.50;98199.69;5493814;26;40883;-76
2024/04/20 00:11:09;;;;;;;0.73;0.73;;;;;;;7.90;84.57;98185.59;5493920;26;41454;-77
2024/04/20 00:13:39;;;;;;;1.53;1.30;;;;;;;7.89;84.08;98191.81;5493781;26;42804;-76
2024/04/20 00:16:09;;;;;;;1.93;1.40;;;;;;;7.96;84.05;98215.97;5492003;26;42221;-76
2024/04/20 00:18:40;;;;;;;0.90;0.87;;;;;;;7.95;84.16;98217.75;5491824;26;40204;-76
2024/04/20 00:21:09;;;;;;;1.23;0.90;;;;;;;7.77;84.58;98197.84;5493373;26;40939;-76
2024/04/20 00:23:41;;;;;;;1.10;1.00;;;;;;;7.87;84.99;98225.31;5492539;26;43554;-76
2024/04/20 00:26:11;;;;;;;0.87;0.83;;;;;;;7.91;85.07;98232.09;5491990;26;43346;-76
2024/04/20 00:28:40;;;;;;;1.60;1.03;;;;;;;7.92;85.00;98231.13;5493642;26;40100;-77
2024/04/20 00:31:09;;;;;;;1.20;1.00;;;;;;;7.95;84.85;98241.50;5493001;26;41319;-76
2024/04/20 00:33:38;;;;;;;1.20;0.87;;;;;;;7.98;84.81;98238.69;5493288;26;44183;-76
2024/04/20 00:36:08;;;;;;;5.03;0.97;;;;;;;7.89;84.94;98236.63;5461004;26;42263;-77
2024/04/20 00:38:37;;;;;;;2.00;1.03;;;;;;;7.80;84.72;98222.19;5493430;26;40969;-77
2024/04/20 00:41:08;;;;;;;0.87;0.80;;;;;;;7.80;84.83;98230.09;5492984;26;42824;-77
2024/04/20 00:43:38;;;;;;;2.07;1.30;;;;;;;7.79;84.77;98238.13;5491642;26;42777;-77
2024/04/20 00:46:08;;;;;;;0.80;0.80;;;;;;;7.92;84.81;98255.69;5492909;26;41924;-76
2024/04/20 00:48:38;;;;;;;1.73;1.23;;;;;;;7.89;85.01;98261.19;5493487;26;40206;-76
2024/04/20 00:51:08;;;;;;;2.00;0.90;;;;;;;7.87;85.83;98254.31;5460770;26;42381;-77
2024/04/20 00:53:38;;;;;;;1.20;1.10;;;;;;;7.75;86.69;98245.38;5493004;26;43991;-76
2024/04/20 00:56:11;;;;;;;1.20;1.10;;;;;;;7.66;88.29;98242.44;5460401;26;43678;-76
2024/04/20 00:58:41;;;;;;;1.63;1.00;;;;;;;7.53;88.57;98243.19;5491445;26;41845;-76
2024/04/20 01:01:11;;;;;;;1.80;1.13;;;;;;;7.49;88.89;98240.81;5492422;26;41460;-76
2024/04/20 01:03:41;;;;;;;2.10;1.13;;;;;;;7.38;88.77;98233.56;5493566;26;42324;-76
2024/04/20 01:06:10;;;;;;;2.10;1.03;;;;;;;7.28;89.48;98232.41;5460210;26;43728;-76
2024/04/20 01:08:40;;;;;;;1.27;1.17;;;;;;;7.28;89.67;98248.22;5491448;26;40042;-76
2024/04/20 01:11:12;;;;;;;1.60;0.97;;;;;;;7.21;89.61;98252.13;5492902;26;43292;-76
2024/04/20 01:13:41;;;;;;;1.07;0.97;;;;;;;7.24;89.97;98254.59;5492985;26;42741;-76
2024/04/20 01:16:11;;;;;;;1.03;1.00;;;;;;;7.22;90.02;98257.31;5492342;26;42405;-76
2024/04/20 01:18:40;;;;;;;1.20;0.80;;;;;;;7.29;90.29;98278.88;5460554;26;41511;-76
2024/04/20 01:21:09;;;;;;;2.63;1.47;;;;;;;7.24;91.03;98266.91;5492351;26;41505;-76
2024/04/20 06:22:02;;;;;;;4.10;1.47;;;;;;;5.60;100.00;98657.69;5510249;25;20557;-78
2024/04/20 06:24:32;;;;;;;2.83;1.30;;;;;;;6.34;100.00;98679.63;5510571;26;40088;-77
2024/04/20 06:27:01;;;;;;;2.50;1.27;;;;;;;6.96;100.00;98684.41;5509264;26;42632;-77
2024/04/20 06:29:30;;;;;;;3.80;1.70;;;;;;;7.46;96.19;98697.59;5508905;26;41352;-78
2024/04/20 06:31:59;;;;;;;2.20;1.40;;;;;;;7.70;91.42;98689.34;5510594;26;42123;-77
2024/04/20 06:34:28;;;;;;;1.50;1.23;;;;;;;7.98;86.87;98715.06;5511189;26;40135;-75
2024/04/20 06:36:57;;;;;;;3.47;1.30;;;;;;;8.17;85.92;98721.88;5510857;26;42544;-76
2024/04/20 06:39:29;;;;;;;2.10;1.03;;;;;;;8.46;83.84;98741.41;5510708;26;43050;-77
2024/04/20 06:41:59;;;;;;;1.20;1.10;;;;;;;8.57;80.74;98727.63;5510611;26;42531;-76
2024/04/20 06:44:29;;;;;;;2.40;1.33;;;;;;;8.90;79.94;98748.63;5509025;26;39159;-77
2024/04/20 06:46:58;;;;;;;2.77;1.33;;;;;;;9.07;78.09;98748.50;5508874;26;42932;-77
2024/04/20 06:49:27;;;;;;;1.33;1.13;;;;;;;9.45;76.28;98780.59;5510473;26;43980;-77
2024/04/20 06:51:56;;;;;;;1.37;1.27;;;;;;;9.74;74.02;98760.38;5510569;26;41863;-77
2024/04/20 06:54:25;;;;;;;1.33;0.90;;;;;;;9.93;71.25;98771.50;5510634;26;41278;-78
2024/04/20 06:56:57;;;;;;;1.03;0.93;;;;;;;10.12;69.48;98775.69;5510115;26;41751;-76
2024/04/20 06:59:27;;;;;;;2.13;1.10;;;;;;;10.52;69.77;98790.78;5510801;26;43648;-77
2024/04/20 07:01:56;;;;;;;3.57;1.27;;;;;;;10.58;66.05;98794.84;5508402;26;42494;-77
2024/04/20 07:04:25;;;;;;;1.20;1.10;;;;;;;10.75;65.02;98802.59;5509214;26;38979;-77
2024/04/20 07:06:54;;;;;;;1.23;1.13;;;;;;;11.13;63.14;98826.56;5510099;26;41820;-76
2024/04/20 07:09:23;;;;;;;2.27;0.90;;;;;;;11.27;62.36;98828.34;5510505;26;43732;-76
2024/04/20 07:11:52;;;;;;;2.70;1.13;;;;;;;11.92;60.27;98841.69;5510081;26;41216;-77
2024/04/20 07:14:25;;;;;;;2.23;1.10;;;;;;;12.43;58.57;98856.66;5510484;26;40121;-77
2024/04/20 07:16:54;;;;;;;1.87;1.03;;;;;;;12.89;56.99;98848.06;5510147;26;41619;-76
2024/04/20 07:19:24;;;;;;;0.97;0.80;;;;;;;13.23;55.24;98863.31;5510229;26;42825;-77
2024/04/20 07:21:53;;;;;;;1.17;1.07;;;;;;;13.81;55.94;98876.78;5508073;26;43124;-77
2024/04/20 07:24:22;;;;;;;1.17;0.80;;;;;;;14.05;53.18;98882.06;5510754;26;40029;-77
2024/04/20 07:26:51;;;;;;;0.97;0.80;;;;;;;14.28;51.80;98897.97;5508260;26;41717;-78
2024/04/20 07:29:24;;;;;;;1.30;0.90;;;;;;;14.48;51.49;98899.09;5508627;26;43521;-78
2024/04/20 07:31:53;;;;;;;0.97;0.90;;;;;;;14.33;51.69;98881.63;5504024;26;42130;-77
2024/04/20 07:34:29;;;;;;;1.80;0.80;;;;;;;14.64;51.41;98898.75;5494140;26;39996;-78
2024/04/20 07:36:58;;;;;;;2.40;1.00;;;;;;;14.73;50.29;98898.88;5492976;26;42066;-78
2024/04/20 07:39:27;;;;;;;1.60;0.80;;;;;;;14.67;50.54;98899.38;5494603;26;42664;-78
2024/04/20 07:41:56;;;;;;;1.27;0.70;;;;;;;14.88;52.15;98893.31;5494534;26;43227;-78
2024/04/20 07:44:25;;;;;;;1.83;0.90;;;;;;;15.29;48.91;98930.88;5492317;26;39343;-77
2024/04/20 07:47:03;;;;;;;3.50;0.97;;;;;;;14.96;49.19;98933.56;5458403;26;42915;-77
2024/04/20 07:49:32;;;;;;;0.93;0.90;;;;;;;14.36;48.83;98918.66;5457393;26;44033;-77
2024/04/20 07:52:01;;;;;;;1.37;0.87;;;;;;;13.94;48.03;98944.97;5455746;26;42967;-78
2024/04/20 07:54:30;;;;;;;1.60;1.07;;;;;;;13.79;48.42;98939.91;5455967;26;38475;-77
2024/04/20 07:56:59;;;;;;;2.50;0.80;;;;;;;13.84;49.05;98953.75;5454731;26;41992;-78
2024/04/20 07:59:31;;;;;;;1.33;0.90;;;;;;;13.71;49.75;98919.19;5455575;26;42859;-77
2024/04/20 08:02:00;;;;;;;1.00;0.80;;;;;;;13.93;48.24;98947.72;5488242;26;41823;-77
2024/04/20 08:04:29;;;;;;;0.70;0.70;;;;;;;13.51;48.57;98938.44;5494014;26;41150;-77
2024/04/20 08:06:58;;;;;;;1.00;1.00;;;;;;;13.25;48.68;98961.59;5491549;26;41876;-76
2024/04/20 08:09:27;;;;;;;2.93;0.80;;;;;;;12.85;49.88;98958.25;5493485;26;43737;-77
2024/04/20 08:11:56;;;;;;;1.23;1.00;;;;;;;12.37;50.64;98958.00;5491704;26;40911;-77
2024/04/20 08:14:25;;;;;;;1.00;0.70;;;;;;;11.90;51.21;98936.47;5493739;26;40208;-77
2024/04/20 08:16:58;;;;;;;1.23;1.10;;;;;;;12.28;51.35;98965.75;5493211;26;41799;-77
2024/04/20 08:19:27;;;;;;;0.80;0.80;;;;;;;12.93;50.23;98967.38;5493846;26;43835;-78
2024/04/20 08:21:56;;;;;;;5.07;0.83;;;;;;;12.74;49.45;98996.16;5493432;26;43363;-77
2024/04/20 08:24:25;;;;;;;2.43;0.80;;;;;;;12.48;49.52;98990.00;5493971;26;40114;-77
2024/04/20 08:26:55;;;;;;;1.10;0.80;;;;;;;12.28;50.15;98987.84;5493224;26;41842;-78
2024/04/20 08:29:24;;;;;;;1.53;0.93;;;;;;;12.39;50.44;98982.66;5493894;26;42656;-78
2024/04/20 08:31:53;;;;;;;0.83;0.83;;;;;;;12.83;50.06;99002.69;5493145;26;42290;-77
2024/04/20 08:34:25;;;;;;;1.53;1.00;;;;;;;13.19;49.31;99008.09;5493899;26;39920;-76
2024/04/20 08:36:54;;;;;;;1.20;1.00;;;;;;;13.58;48.42;99001.75;5494010;26;41630;-77
2024/04/20 08:39:23;;;;;;;1.10;0.70;;;;;;;14.53;47.93;99011.53;5494031;26;42539;-77
2024/04/20 08:42:03;;;;;;;0.87;0.80;;;;;;;14.76;47.26;99000.91;5491632;26;42043;-77
2024/04/20 08:44:32;;;;;;;1.00;0.87;;;;;;;14.61;46.25;99019.78;5490490;26;40058;-77
2024/04/20 08:47:00;;;;;;;1.07;0.80;;;;;;;14.21;47.48;99015.75;5493356;26;41336;-77
2024/04/20 08:49:33;;;;;;;0.90;0.83;;;;;;;14.06;47.93;99030.22;5491605;26;41488;-77
2024/04/20 08:52:02;;;;;;;0.87;0.83;;;;;;;13.82;47.11;99023.06;5491728;26;41586;-77
2024/04/20 08:54:33;;;;;;;1.37;0.80;;;;;;;13.80;47.63;99038.28;5493780;26;39881;-78
2024/04/20 08:57:03;;;;;;;2.00;1.03;;;;;;;17.32;44.23;99050.97;5493599;26;41450;-77
2024/04/20 08:59:34;;;;;;;3.10;1.03;;;;;;;19.88;40.84;99067.56;5493501;26;43572;-78
2024/04/20 09:02:06;;;;;;;0.70;0.70;;;;;;;23.14;35.33;99105.28;5493084;26;43125;-78
2024/04/20 09:04:38;;;;;;;0.63;0.60;;;;;;;24.70;31.38;99100.06;5493793;26;40330;-77
2024/04/20 09:07:08;;;;;;;0.60;0.60;;;;;;;23.25;32.23;99112.22;5493135;26;41846;-77
2024/04/20 09:09:37;;;;;;;0.73;0.50;;;;;;;21.75;33.82;99114.03;5492706;26;44121;-77
2024/04/20 09:12:07;;;;;;;1.00;0.70;;;;;;;20.49;34.51;99104.59;5491870;26;42011;-76
2024/04/20 09:14:37;;;;;;;2.27;0.60;;;;;;;19.53;35.92;99104.06;5491302;26;40332;-78
2024/04/20 09:17:06;;;;;;;0.97;0.70;;;;;;;18.56;36.40;99076.44;5491613;26;40681;-78
2024/04/20 09:19:38;;;;;;;0.67;0.57;;;;;;;18.12;37.17;99093.03;5491396;26;42777;-77
2024/04/20 09:22:12;;;;;;;1.03;0.70;;;;;;;17.51;37.96;99093.94;5493346;26;42066;-78
2024/04/20 09:24:41;;;;;;;0.70;0.70;;;;;;;16.88;39.47;99058.34;5492667;26;40137;-78
2024/04/20 09:27:12;;;;;;;0.53;0.50;;;;;;;16.45;39.90;99049.53;5490561;26;40508;-77
2024/04/20 09:29:41;;;;;;;1.00;0.63;;;;;;;16.30;41.22;99064.19;5492653;26;42228;-79
2024/04/20 09:32:11;;;;;;;1.27;0.70;;;;;;;16.17;40.00;99083.03;5492731;26;42244;-76
2024/04/20 09:34:43;;;;;;;1.07;0.70;;;;;;;15.98;40.88;99089.03;5491015;26;40237;-77
2024/04/20 09:37:14;;;;;;;0.60;0.40;;;;;;;15.73;40.66;99081.28;5460708;26;42138;-78
2024/04/20 09:39:44;;;;;;;0.67;0.57;;;;;;;15.55;41.29;99064.06;5460697;26;41757;-78
2024/04/20 09:42:16;;;;;;;0.93;0.60;;;;;;;15.56;41.82;99055.09;5492597;26;43296;-78
2024/04/20 09:44:46;;;;;;;0.93;0.60;;;;;;;15.83;41.47;99084.91;5490862;26;39082;-78
2024/04/20 09:47:18;;;;;;;1.00;0.80;;;;;;;16.16;41.30;99079.53;5460063;26;41803;-77
2024/04/20 09:49:53;;;;;;;1.07;0.40;;;;;;;17.02;41.20;99067.03;5489551;26;44023;-76
2024/04/20 09:52:25;;;;;;;1.37;0.60;;;;;;;17.25;40.75;99071.25;5491973;26;42241;-76
2024/04/20 09:55:04;;;;;;;1.50;0.50;;;;;;;17.11;40.68;99091.16;5491488;26;40910;-77
2024/04/20 09:57:37;;;;;;;0.87;0.60;;;;;;;16.70;39.93;99085.78;5492004;26;41690;-77
2024/04/20 10:00:08;;;;;;;0.83;0.40;;;;;;;16.39;39.55;99088.31;5490210;26;43647;-77
2024/04/20 10:02:37;;;;;;;0.60;0.60;;;;;;;16.34;39.48;99103.03;5459629;26;40827;-77
2024/04/20 10:05:13;;;;;;;1.00;0.60;;;;;;;16.29;39.81;99094.56;5459818;26;41408;-77
2024/04/20 10:07:43;;;;;;;0.60;0.60;;;;;;;16.84;40.28;99072.94;5459509;26;41599;-78
2024/04/20 10:10:15;;;;;;;0.57;0.50;;;;;;;17.75;39.41;99095.47;5459939;26;41545;-78
2024/04/20 10:12:46;;;;;;;0.40;0.40;;;;;;;18.41;40.30;99083.22;5491840;26;43133;-78
2024/04/20 10:15:15;;;;;;;0.60;0.60;;;;;;;18.34;39.25;99071.34;5489999;26;38965;-78
2024/04/20 10:17:44;;;;;;;0.63;0.63;;;;;;;17.90;37.65;99110.19;5491050;26;41440;-78
2024/04/20 10:20:17;;;;;;;1.37;0.60;;;;;;;17.20;37.68;99085.00;5491418;26;43958;-78
2024/04/20 10:22:46;;;;;;;0.93;0.50;;;;;;;17.67;38.45;99114.06;5489651;26;42021;-78
2024/04/20 10:25:17;;;;;;;0.60;0.60;;;;;;;18.18;37.36;99114.75;5491741;26;40296;-77
2024/04/20 10:27:52;;;;;;;0.60;0.60;;;;;;;18.23;36.78;99120.56;5489665;26;41903;-77
2024/04/20 10:30:22;;;;;;;1.70;0.60;;;;;;;17.96;37.47;99115.00;5458744;26;44011;-77
2024/04/20 10:32:53;;;;;;;0.67;0.60;;;;;;;17.77;37.54;99114.94;5458928;26;41096;-78
2024/04/20 10:35:25;;;;;;;1.30;0.80;;;;;;;17.56;37.35;99134.53;5489096;26;39185;-77
2024/04/20 10:38:02;;;;;;;2.00;0.80;;;;;;;17.34;36.18;99140.03;5458814;26;41850;-77
2024/04/20 10:40:32;;;;;;;0.63;0.63;;;;;;;17.26;36.04;99137.19;5489694;26;43132;-78
2024/04/20 10:43:12;;;;;;;0.50;0.50;;;;;;;17.72;37.57;99111.78;5489131;26;41827;-77
2024/04/20 10:45:43;;;;;;;1.40;0.40;;;;;;;19.57;34.40;99150.28;5491072;26;40426;-78
2024/04/20 10:48:16;;;;;;;1.27;0.57;;;;;;;21.49;30.74;99172.50;5489081;26;41670;-77
2024/04/20 10:50:47;;;;;;;0.40;0.40;;;;;;;21.28;30.77;99158.50;5488809;26;43225;-76
2024/04/20 10:53:18;;;;;;;0.60;0.60;;;;;;;20.49;30.45;99161.09;5490089;26;43224;-76
2024/04/20 10:55:56;;;;;;;0.73;0.50;;;;;;;19.84;30.77;99181.72;5490675;26;39820;-77
2024/04/20 10:58:25;;;;;;;0.47;0.47;;;;;;;19.21;31.92;99167.97;5490439;26;41802;-76
2024/04/20 11:00:56;;;;;;;0.83;0.40;;;;;;;18.72;31.19;99188.59;5488200;26;43847;-80
2024/04/20 11:03:25;;;;;;;1.50;0.73;;;;;;;18.27;31.61;99135.41;5488524;26;41899;-77
2024/04/20 11:05:59;;;;;;;0.50;0.50;;;;;;;18.41;31.67;99173.56;5490501;26;39966;-77
2024/04/20 11:08:28;;;;;;;0.40;0.40;;;;;;;18.35;31.98;99177.63;5493788;26;41674;-77
2024/04/20 11:11:01;;;;;;;0.90;0.40;;;;;;;18.37;32.84;99150.66;5491742;26;43054;-77
2024/04/20 11:13:31;;;;;;;1.23;0.50;;;;;;;18.72;33.62;99140.28;5493424;26;42022;-77
2024/04/20 11:16:01;;;;;;;0.93;0.47;;;;;;;19.26;32.44;99163.03;5493622;26;41631;-78
2024/04/20 11:18:30;;;;;;;0.43;0.43;;;;;;;19.39;32.28;99166.28;5493667;26;42955;-78
2024/04/20 11:21:03;;;;;;;0.37;0.37;;;;;;;19.53;32.43;99147.06;5493114;26;43622;-77
2024/04/20 11:23:32;;;;;;;0.77;0.50;;;;;;;20.16;32.22;99166.03;5493475;26;43019;-77
2024/04/20 11:26:02;;;;;;;1.33;0.40;;;;;;;20.48;31.87;99172.84;5491428;26;42156;-77
2024/04/20 11:28:32;;;;;;;1.03;0.60;;;;;;;20.06;32.57;99141.03;5491812;26;41774;-77
2024/04/20 11:31:01;;;;;;;1.50;0.67;;;;;;;20.01;32.57;99183.66;5493030;26;42751;-76
2024/04/20 11:33:30;;;;;;;0.60;0.60;;;;;;;19.77;31.82;99180.63;5493541;26;42781;-77
2024/04/20 11:36:04;;;;;;;1.13;0.60;;;;;;;19.24;33.18;99162.31;5491661;26;41377;-77
2024/04/20 11:38:34;;;;;;;1.53;0.83;;;;;;;18.69;32.68;99151.31;5493162;26;41881;-77
2024/04/20 11:41:03;;;;;;;0.50;0.43;;;;;;;19.37;34.28;99169.09;5492496;26;44004;-77
2024/04/20 11:43:34;;;;;;;1.13;0.70;;;;;;;20.54;32.95;99156.06;5460485;26;43346;-77
2024/04/20 11:46:05;;;;;;;0.57;0.50;;;;;;;21.99;32.90;99169.13;5493111;26;41662;-77
2024/04/20 11:48:36;;;;;;;0.73;0.53;;;;;;;23.53;29.24;99180.31;5493530;26;41456;-77
2024/04/20 11:51:25;;;;;;;1.20;0.70;;;;;;;24.72;27.90;99196.56;5491566;26;42968;-78
2024/04/20 11:56:45;;;;;;;0.60;0.60;;;;;;;25.84;24.88;99202.16;5491339;26;39962;-77
2024/04/20 11:59:15;;;;;;;0.77;0.53;;;;;;;25.77;25.53;99214.78;5460737;26;40642;-77
2024/04/20 12:01:44;;;;;;;0.60;0.60;;;;;;;24.96;26.19;99212.69;5492424;26;43516;-77
2024/04/20 12:04:14;;;;;;;0.93;0.77;;;;;;;24.35;26.48;99222.44;5492740;26;43236;-76
2024/04/20 12:06:47;;;;;;;0.43;0.43;;;;;;;24.08;27.33;99220.13;5490770;26;39903;-76
2024/04/20 12:09:16;;;;;;;0.43;0.40;;;;;;;23.11;27.69;99202.94;5490226;26;41811;-76
2024/04/20 12:11:45;;;;;;;0.73;0.63;;;;;;;22.39;28.50;99219.72;5492317;26;42740;-77
2024/04/20 12:14:14;;;;;;;1.13;0.70;;;;;;;23.01;28.24;99210.31;5492788;26;43292;-76
2024/04/20 12:16:43;;;;;;;1.23;0.83;;;;;;;22.80;28.24;99218.03;5460097;26;38792;-77
2024/04/20 12:19:12;;;;;;;0.90;0.80;;;;;;;22.89;28.69;99217.03;5460009;26;40330;-78
2024/04/20 12:21:41;;;;;;;1.17;0.77;;;;;;;22.66;27.87;99210.53;5490606;26;43558;-78
2024/04/20 12:24:13;;;;;;;0.97;0.70;;;;;;;22.47;27.39;99228.72;5492817;26;42169;-77
2024/04/20 12:26:43;;;;;;;1.23;0.60;;;;;;;21.94;28.78;99198.38;5490918;26;40060;-77
2024/04/20 12:29:12;;;;;;;2.10;0.80;;;;;;;22.11;28.12;99227.19;5492839;26;41558;-77
2024/04/20 12:31:41;;;;;;;1.47;0.93;;;;;;;21.97;29.07;99215.09;5492368;26;43830;-77
2024/04/20 12:34:12;;;;;;;1.23;0.60;;;;;;;22.10;30.19;99209.31;5492427;26;42895;-78
2024/04/20 12:36:43;;;;;;;0.60;0.50;;;;;;;22.85;29.85;99210.31;5490484;26;40017;-76
2024/04/20 12:39:15;;;;;;;1.43;0.70;;;;;;;23.70;28.13;99222.56;5492601;26;42909;-77
2024/04/20 12:41:45;;;;;;;1.23;0.60;;;;;;;24.14;27.79;99206.72;5492977;26;43830;-78
2024/04/20 12:44:14;;;;;;;0.77;0.70;;;;;;;24.45;27.19;99227.66;5489932;26;43128;-77
2024/04/20 12:46:43;;;;;;;0.97;0.70;;;;;;;24.06;26.82;99222.16;5490536;26;38555;-78
2024/04/20 12:49:13;;;;;;;2.20;0.80;;;;;;;23.63;27.57;99205.31;5492459;26;41620;-76
2024/04/20 12:51:43;;;;;;;0.80;0.60;;;;;;;24.15;27.00;99242.75;5490731;26;42812;-78
2024/04/20 12:54:15;;;;;;;1.10;0.83;;;;;;;24.19;27.35;99234.13;5490481;26;41186;-77
2024/04/20 12:56:44;;;;;;;1.00;0.70;;;;;;;24.47;26.32;99242.72;5490652;26;39963;-78
2024/04/20 12:59:14;;;;;;;0.90;0.60;;;;;;;25.33;26.52;99233.63;5490528;26;41922;-77
2024/04/20 13:01:43;;;;;;;0.80;0.67;;;;;;;25.79;26.33;99233.59;5491978;26;42864;-77
2024/04/20 13:04:12;;;;;;;1.37;0.70;;;;;;;25.21;26.29;99246.75;5492447;26;42176;-78
2024/04/20 13:06:41;;;;;;;0.93;0.57;;;;;;;24.56;26.76;99257.06;5491936;26;40105;-77
2024/04/20 13:09:11;;;;;;;0.70;0.60;;;;;;;23.95;27.15;99251.28;5490479;26;41840;-77
2024/04/20 13:11:43;;;;;;;1.00;0.60;;;;;;;23.32;27.58;99247.53;5491731;26;43101;-77
2024/04/20 13:14:13;;;;;;;0.60;0.50;;;;;;;22.76;28.52;99238.28;5490270;26;43532;-77
2024/04/20 13:16:43;;;;;;;0.67;0.67;;;;;;;22.29;28.53;99241.44;5489108;26;38676;-77
2024/04/20 13:19:12;;;;;;;0.50;0.50;;;;;;;21.70;29.37;99234.13;5492410;26;41987;-77
2024/04/20 13:21:41;;;;;;;0.60;0.57;;;;;;;21.25;30.10;99231.56;5491732;26;44203;-78
2024/04/20 13:24:10;;;;;;;0.50;0.50;;;;;;;20.65;30.24;99198.91;5492264;26;42058;-77
2024/04/20 13:26:41;;;;;;;1.57;0.70;;;;;;;20.57;31.19;99225.75;5492000;26;39926;-77
2024/04/20 13:29:13;;;;;;;0.57;0.57;;;;;;;20.21;31.37;99209.47;5492071;26;42069;-77
2024/04/20 13:31:43;;;;;;;1.17;0.60;;;;;;;20.41;31.07;99227.25;5491414;26;44369;-77
2024/04/20 13:34:12;;;;;;;1.33;0.63;;;;;;;20.42;31.13;99226.25;5492283;26;42036;-78
2024/04/20 13:36:42;;;;;;;2.20;0.90;;;;;;;21.08;31.54;99212.50;5491592;26;41159;-76
2024/04/20 13:39:12;;;;;;;0.77;0.67;;;;;;;21.86;29.89;99224.31;5490037;26;42828;-76
2024/04/20 13:41:42;;;;;;;1.53;0.60;;;;;;;23.00;28.95;99222.13;5489848;26;44209;-77
2024/04/20 13:44:15;;;;;;;0.90;0.60;;;;;;;24.25;27.97;99221.78;5491765;26;42314;-76
2024/04/20 13:46:44;;;;;;;1.93;0.70;;;;;;;23.70;27.53;99227.97;5491719;26;41129;-76
2024/04/20 13:49:13;;;;;;;1.30;0.60;;;;;;;22.94;27.91;99244.41;5492105;26;41723;-77
2024/04/20 13:51:42;;;;;;;2.23;1.10;;;;;;;22.17;28.89;99221.97;5490007;26;42882;-77
2024/04/20 13:54:12;;;;;;;1.30;0.70;;;;;;;21.88;29.23;99222.25;5489894;26;42033;-78
2024/04/20 13:56:41;;;;;;;1.70;0.80;;;;;;;22.22;29.90;99224.22;5491635;26;40120;-77
2024/04/20 13:59:13;;;;;;;1.13;0.80;;;;;;;22.88;29.54;99234.25;5491793;26;42005;-78
2024/04/20 14:01:45;;;;;;;0.50;0.50;;;;;;;23.21;29.36;99227.94;5489326;26;43084;-77
2024/04/20 14:04:14;;;;;;;0.70;0.70;;;;;;;22.90;28.44;99230.38;5491615;26;43417;-78
2024/04/20 14:06:44;;;;;;;0.60;0.60;;;;;;;22.40;29.46;99206.06;5491395;26;40191;-78
2024/04/20 14:09:14;;;;;;;0.87;0.70;;;;;;;22.08;29.54;99222.09;5491646;26;41803;-77
2024/04/20 14:11:43;;;;;;;0.60;0.60;;;;;;;21.61;29.93;99219.75;5458780;26;43452;-77
2024/04/20 14:14:12;;;;;;;2.17;0.90;;;;;;;21.71;31.48;99204.31;5492031;26;42097;-77
2024/04/20 14:16:44;;;;;;;0.63;0.40;;;;;;;21.98;30.76;99210.56;5489978;26;39939;-77
2024/04/20 14:19:14;;;;;;;1.10;0.70;;;;;;;22.27;29.57;99204.81;5489817;26;40619;-77
2024/04/20 14:21:45;;;;;;;0.83;0.60;;;;;;;21.98;30.24;99194.38;5491078;26;43320;-77
2024/04/20 14:24:14;;;;;;;0.60;0.60;;;;;;;21.49;30.63;99194.03;5492081;26;42249;-78
2024/04/20 14:26:43;;;;;;;0.50;0.50;;;;;;;21.02;30.60;99201.50;5489980;26;40831;-78
2024/04/20 14:29:12;;;;;;;2.63;0.60;;;;;;;20.59;31.38;99200.38;5489784;26;41703;-78
2024/04/20 14:31:44;;;;;;;1.07;0.80;;;;;;;20.23;32.05;99179.75;5489492;26;43843;-77
2024/04/20 14:34:13;;;;;;;0.60;0.60;;;;;;;20.08;32.39;99185.59;5491580;26;42139;-77
2024/04/20 14:36:44;;;;;;;1.33;0.63;;;;;;;19.87;32.54;99170.69;5489098;26;38675;-77
2024/04/20 14:39:13;;;;;;;1.17;0.67;;;;;;;19.80;31.95;99191.91;5490719;26;42468;-78
2024/04/20 14:41:42;;;;;;;2.60;0.70;;;;;;;19.61;32.62;99186.63;5491479;26;44055;-77
2024/04/20 14:44:11;;;;;;;0.97;0.63;;;;;;;19.27;33.79;99148.63;5492203;26;42017;-77
2024/04/20 14:46:42;;;;;;;1.10;0.50;;;;;;;19.21;34.35;99151.88;5461218;26;39860;-77
2024/04/20 14:49:14;;;;;;;0.97;0.60;;;;;;;19.02;33.90;99155.44;5493872;26;42591;-77
2024/04/20 14:51:43;;;;;;;1.27;0.70;;;;;;;18.91;34.64;99151.06;5493826;26;44107;-78
2024/04/20 14:54:15;;;;;;;1.07;0.60;;;;;;;18.73;34.24;99154.56;5493675;26;41942;-78
2024/04/20 14:56:45;;;;;;;1.87;0.70;;;;;;;18.81;34.24;99174.31;5494357;26;40353;-77
2024/04/20 14:59:14;;;;;;;0.87;0.50;;;;;;;18.92;33.92;99173.34;5494616;26;41548;-79
2024/04/20 15:01:43;;;;;;;2.13;0.50;;;;;;;19.05;33.95;99173.06;5493840;26;44087;-78
2024/04/20 15:04:15;;;;;;;0.80;0.60;;;;;;;18.90;34.51;99157.41;5461977;26;41416;-77
2024/04/20 15:06:44;;;;;;;0.47;0.47;;;;;;;18.86;34.61;99176.59;5492048;26;40121;-78
2024/04/20 15:09:15;;;;;;;0.70;0.70;;;;;;;18.70;35.37;99174.47;5493903;26;41928;-77
2024/04/20 15:11:45;;;;;;;3.03;0.70;;;;;;;18.38;35.28;99163.94;5492341;26;42783;-77
2024/04/20 15:14:14;;;;;;;1.30;0.80;;;;;;;18.13;35.76;99149.19;5494431;26;43398;-78
2024/04/20 15:16:44;;;;;;;0.80;0.60;;;;;;;17.98;35.80;99165.78;5494102;26;39932;-78
2024/04/20 15:19:15;;;;;;;2.30;0.50;;;;;;;17.77;35.70;99174.72;5494400;26;41816;-77
2024/04/20 15:21:45;;;;;;;1.27;0.70;;;;;;;17.49;36.68;99154.78;5494057;26;43894;-77
2024/04/20 15:24:14;;;;;;;1.33;0.60;;;;;;;17.21;37.01;99134.88;5492187;26;42452;-77
2024/04/20 15:26:43;;;;;;;1.20;0.70;;;;;;;17.20;36.95;99135.00;5493779;26;40189;-77
2024/04/20 15:29:12;;;;;;;1.17;1.00;;;;;;;17.36;36.42;99154.16;5492164;26;41653;-77
2024/04/20 15:31:41;;;;;;;1.57;0.60;;;;;;;17.48;37.19;99158.44;5491230;26;44186;-77
2024/04/20 15:34:11;;;;;;;1.70;0.70;;;;;;;17.52;37.70;99148.31;5494249;26;43223;-77
2024/04/20 15:36:43;;;;;;;0.60;0.57;;;;;;;17.56;36.62;99145.22;5493837;26;41000;-76
2024/04/20 15:39:12;;;;;;;0.90;0.63;;;;;;;17.66;37.85;99149.84;5492413;26;43098;-77
2024/04/20 15:41:41;;;;;;;1.77;0.93;;;;;;;17.59;37.44;99152.16;5491701;26;43907;-76
2024/04/20 15:44:10;;;;;;;0.97;0.83;;;;;;;17.29;37.47;99131.56;5493947;26;42021;-77
2024/04/20 15:46:39;;;;;;;1.37;0.57;;;;;;;17.26;37.96;99137.19;5493251;26;40270;-77
2024/04/20 15:49:09;;;;;;;0.60;0.60;;;;;;;17.32;37.71;99155.38;5491875;26;40444;-77
2024/04/20 15:51:38;;;;;;;0.83;0.63;;;;;;;17.25;37.99;99156.91;5493276;26;42810;-77
2024/04/20 15:54:11;;;;;;;0.70;0.60;;;;;;;17.08;38.09;99144.94;5493076;26;43775;-76
2024/04/20 15:56:40;;;;;;;0.80;0.70;;;;;;;17.07;38.50;99163.78;5491815;26;40148;-77
2024/04/20 15:59:09;;;;;;;0.67;0.60;;;;;;;17.06;38.65;99156.78;5492213;26;41441;-77
2024/04/20 16:01:39;;;;;;;1.23;0.90;;;;;;;16.82;38.26;99127.53;5491085;26;42861;-77
2024/04/20 16:04:08;;;;;;;1.10;0.70;;;;;;;16.80;38.49;99135.72;5491922;26;43498;-77
2024/04/20 16:06:38;;;;;;;0.60;0.60;;;;;;;16.67;38.01;99144.91;5492754;26;40376;-77
2024/04/20 16:09:10;;;;;;;2.70;0.60;;;;;;;16.61;38.32;99156.91;5492413;26;43274;-77
2024/04/20 16:11:39;;;;;;;0.70;0.70;;;;;;;16.42;38.00;99165.59;5492778;26;43973;-77
2024/04/20 16:14:08;;;;;;;1.57;0.60;;;;;;;16.36;38.59;99159.88;5490796;26;42890;-77
2024/04/20 16:16:37;;;;;;;0.90;0.60;;;;;;;16.17;39.48;99136.50;5460375;26;38946;-77
2024/04/20 16:19:06;;;;;;;0.93;0.70;;;;;;;16.08;39.36;99138.06;5493254;26;42877;-77
2024/04/20 16:21:35;;;;;;;1.33;0.80;;;;;;;16.09;39.67;99145.09;5490749;26;42923;-77
2024/04/20 16:24:07;;;;;;;0.77;0.77;;;;;;;15.89;40.62;99113.81;5492828;26;43013;-76
2024/04/20 16:26:39;;;;;;;0.70;0.70;;;;;;;15.86;40.96;99111.38;5492768;26;41382;-77
2024/04/20 16:29:08;;;;;;;0.80;0.67;;;;;;;15.92;41.00;99126.94;5460645;26;42227;-76
2024/04/20 16:31:37;;;;;;;1.87;1.20;;;;;;;15.83;41.68;99132.97;5490860;26;44662;-77
2024/04/20 16:34:06;;;;;;;2.33;0.70;;;;;;;15.70;41.86;99126.94;5493170;26;41763;-77
2024/04/20 16:36:36;;;;;;;1.00;0.70;;;;;;;15.60;41.61;99131.28;5492622;26;40168;-77
2024/04/20 16:39:05;;;;;;;0.77;0.70;;;;;;;15.50;42.57;99124.94;5493044;26;43135;-78
2024/04/20 16:41:34;;;;;;;0.60;0.60;;;;;;;15.36;42.64;99134.88;5490791;26;43049;-77
2024/04/20 16:44:06;;;;;;;1.60;0.60;;;;;;;15.14;42.81;99118.84;5492267;26;43772;-77
2024/04/20 16:46:33;;;;;;;0.60;0.60;;;;;;;15.12;42.90;99128.75;5492589;26;41250;-77
2024/04/20 16:49:02;;;;;;;0.97;0.77;;;;;;;14.86;42.88;99112.06;5493262;26;41407;-77